Time;durP1;ratioP1;P1;durP2;ratioP2;P2;SDS_P1;SDS_P2;PMS_P1;PMS_P2;Temp;Humidity;BMP_temperature;BMP_pressure;BME280_temperature;BME280_humidity;BME280_pressure;Samples;Min_cycle;Max_cycle;Signal;HPM_P1;HPM_P2
2023/12/24 00:02:22;;;;;;;;;;;7.10;58.40;;;5.53;62.06;99979.78;12246665;19;19918;-86
2023/12/24 00:06:23;;;;;;;;;;;7.00;58.30;;;5.57;61.86;99998.63;12250547;19;19924;-85
2023/12/24 00:10:25;;;;;;;;;;;7.20;58.40;;;5.47;61.87;99980.06;12248473;19;20032;-86
2023/12/24 00:14:27;;;;;;;;;;;7.00;58.30;;;5.45;62.06;99987.06;12248192;19;19950;-86
2023/12/24 00:18:28;;;;;;;;;;;7.00;58.30;;;5.45;61.93;99989.66;12248150;19;20037;-86
2023/12/24 00:22:31;;;;;;;;;;;6.90;58.30;;;5.42;62.10;99990.63;12245709;19;19923;-86
2023/12/24 00:26:33;;;;;;;;;;;6.90;58.20;;;5.46;61.86;99993.94;12248598;19;20338;-86
2023/12/24 00:30:35;;;;;;;;;;;6.90;58.30;;;5.16;61.79;99947.84;12245951;19;19954;-86
2023/12/24 00:34:36;;;;;;;;;;;6.90;58.30;;;5.44;61.92;99998.34;12246645;19;19935;-86
2023/12/24 00:38:38;;;;;;;;;;;7.00;58.30;;;5.31;61.85;99978.19;12247879;19;19933;-86
2023/12/24 00:42:41;;;;;;;;;;;6.90;58.30;;;5.38;62.03;99990.88;12241329;19;19922;-85
2023/12/24 00:46:44;;;;;;;;;;;7.00;58.30;;;5.42;61.88;99997.56;12244409;19;20293;-86
2023/12/24 00:50:46;;;;;;;;;;;6.90;58.30;;;5.41;61.89;99993.31;12245516;19;20325;-85
2023/12/24 00:54:47;;;;;;;;;;;6.90;58.30;;;5.14;61.92;99943.63;12244867;19;19907;-86
2023/12/24 00:58:49;;;;;;;;;;;6.90;58.30;;;5.35;62.10;99978.91;12246731;19;19934;-85
2023/12/24 01:02:51;;;;;;;;;;;7.00;58.30;;;5.33;61.83;99978.97;12247949;19;19931;-85
2023/12/24 01:06:53;;;;;;;;;;;6.80;58.30;;;5.35;61.90;99980.63;12248355;19;19933;-85
2023/12/24 01:10:54;;;;;;;;;;;6.80;58.20;;;5.26;62.19;99968.94;12244595;19;19966;-85
2023/12/24 01:14:56;;;;;;;;;;;6.80;58.20;;;5.28;61.90;99977.50;12244179;19;19932;-86
2023/12/24 01:18:58;;;;;;;;;;;7.00;58.30;;;5.02;61.88;99929.50;12245546;19;20341;-86
2023/12/24 01:23:00;;;;;;;;;;;6.80;58.20;;;5.31;61.87;99983.34;12246623;19;19921;-86
2023/12/24 01:27:03;;;;;;;;;;;6.80;58.20;;;5.16;61.79;99963.38;12246188;19;20000;-86
2023/12/24 01:31:04;;;;;;;;;;;6.70;58.20;;;5.08;62.01;99957.69;12243482;19;20304;-86
2023/12/24 01:35:06;;;;;;;;;;;6.70;58.20;;;5.17;62.00;99970.22;12243519;19;19911;-86
2023/12/24 01:39:08;;;;;;;;;;;6.70;58.20;;;5.02;61.91;99947.59;12245415;19;19949;-86
2023/12/24 01:43:09;;;;;;;;;;;6.70;58.20;;;5.26;61.96;99980.13;12245065;19;19919;-86
2023/12/24 01:47:11;;;;;;;;;;;6.70;58.20;;;5.00;61.81;99937.34;12245313;19;19970;-86
2023/12/24 01:51:13;;;;;;;;;;;7.00;58.30;;;5.15;62.07;99958.25;12243059;19;19923;-86
2023/12/24 01:55:15;;;;;;;;;;;6.70;58.10;;;5.18;61.87;99951.16;12253730;19;19978;-86
2023/12/24 01:59:17;;;;;;;;;;;6.70;58.20;;;4.95;61.90;99910.00;12257649;19;19923;-86
2023/12/24 02:03:19;;;;;;;;;;;6.90;58.20;;;4.92;61.75;99907.56;12257544;19;19918;-86
2023/12/24 02:07:23;;;;;;;;;;;6.70;58.10;;;5.07;61.83;99927.53;12257985;19;19927;-87
2023/12/24 02:11:25;;;;;;;;;;;6.70;58.10;;;5.08;61.91;99932.66;12253690;19;19932;-87
2023/12/24 02:15:26;;;;;;;;;;;6.70;58.10;;;5.00;62.05;99918.41;12253995;19;19978;-87
2023/12/24 02:19:28;;;;;;;;;;;6.60;58.10;;;5.00;61.94;99916.63;12252852;19;19923;-88
2023/12/24 02:23:30;;;;;;;;;;;6.60;58.20;;;4.99;61.93;99914.94;12255582;19;19926;-88
2023/12/24 02:27:51;;;;;;;;;;;6.60;58.20;;;5.08;61.94;99935.25;12256937;19;19915;-88
2023/12/24 02:32:01;;;;;;;;;;;6.60;58.20;;;4.97;62.04;99915.91;12253098;19;19943;-88
2023/12/24 02:36:04;;;;;;;;;;;6.80;58.30;;;4.97;62.13;99918.50;12251888;19;19921;-88
2023/12/24 02:40:08;;;;;;;;;;;6.50;58.20;;;4.81;62.05;99877.84;12254188;19;19926;-88
2023/12/24 02:44:10;;;;;;;;;;;6.50;58.20;;;4.90;62.07;99896.44;12253937;19;19996;-88
2023/12/24 02:48:12;;;;;;;;;;;6.50;58.20;;;4.64;61.98;99870.84;12255309;19;19918;-88
2023/12/24 02:52:13;;;;;;;;;;;6.80;58.70;;;5.00;62.12;99905.47;12250645;19;19978;-88
2023/12/24 02:56:15;;;;;;;;;;;6.50;58.20;;;4.89;61.97;99890.41;12251401;19;20257;-88
2023/12/24 03:00:17;;;;;;;;;;;6.50;58.20;;;4.71;61.84;99855.03;12252322;19;19983;-88
2023/12/24 03:04:18;;;;;;;;;;;6.50;58.30;;;4.87;62.05;99879.28;12252017;19;20342;-88
2023/12/24 03:08:21;;;;;;;;;;;6.40;58.30;;;4.94;62.05;99903.13;12254352;19;19951;-88
2023/12/24 03:12:22;;;;;;;;;;;6.70;58.30;;;4.74;62.05;99860.06;12247438;19;19915;-88
2023/12/24 03:16:23;;;;;;;;;;;6.40;58.30;;;4.87;62.08;99894.81;12251147;19;19915;-88
2023/12/24 03:20:25;;;;;;;;;;;6.40;58.20;;;4.84;62.10;99892.38;12251927;19;20395;-88
2023/12/24 03:24:26;;;;;;;;;;;6.30;58.20;;;4.82;62.08;99869.16;12252772;19;19917;-88
2023/12/24 03:28:28;;;;;;;;;;;6.30;58.20;;;4.76;61.92;99869.44;12253676;19;19915;-88
2023/12/24 03:32:30;;;;;;;;;;;6.30;58.30;;;4.67;62.12;99851.72;12249462;19;19911;-88
2023/12/24 03:36:31;;;;;;;;;;;6.30;58.30;;;4.79;62.04;99877.06;12248998;19;20255;-88
2023/12/24 03:40:33;;;;;;;;;;;6.20;58.30;;;4.66;61.97;99843.13;12251077;19;20357;-88
2023/12/24 03:44:35;;;;;;;;;;;6.20;58.30;;;4.46;61.74;99812.19;12249608;19;19914;-88
2023/12/24 03:48:37;;;;;;;;;;;6.20;58.30;;;4.57;61.91;99820.28;12251560;19;19915;-88
2023/12/24 03:52:40;;;;;;;;;;;6.20;58.30;;;4.58;62.07;99827.13;12247790;19;20264;-88
2023/12/24 03:56:41;;;;;;;;;;;6.40;58.30;;;4.63;62.01;99837.28;12249595;19;19915;-88
2023/12/24 04:00:43;;;;;;;;;;;6.20;58.30;;;4.53;61.97;99816.16;12250113;19;19954;-88
2023/12/24 04:04:48;;;;;;;;;;;6.20;58.30;;;4.37;62.00;99778.97;12250363;19;19915;-88
2023/12/24 04:08:50;;;;;;;;;;;6.40;58.40;;;4.55;61.93;99806.59;12248971;19;19907;-88
2023/12/24 04:12:52;;;;;;;;;;;6.10;58.30;;;4.60;61.95;99814.16;12248538;19;19918;-87
2023/12/24 04:16:53;;;;;;;;;;;6.30;58.40;;;4.55;62.10;99813.50;12243198;19;19978;-88
2023/12/24 04:20:55;;;;;;;;;;;6.10;58.40;;;4.53;62.12;99800.66;12246864;19;19919;-87
2023/12/24 04:24:58;;;;;;;;;;;6.10;58.40;;;4.47;62.08;99777.66;12248431;19;20230;-87
2023/12/24 04:29:00;;;;;;;;;;;6.20;58.40;;;4.64;61.97;99794.97;12248426;19;19995;-87
2023/12/24 04:33:02;;;;;;;;;;;6.30;58.50;;;4.62;62.18;99781.31;12247649;19;19921;-87
2023/12/24 04:37:04;;;;;;;;;;;6.20;58.50;;;4.56;62.25;99766.06;12244686;19;20434;-87
2023/12/24 04:41:06;;;;;;;;;;;6.10;58.50;;;4.42;62.15;99744.25;12246068;19;19954;-87
2023/12/24 04:45:08;;;;;;;;;;;6.10;58.50;;;4.57;62.04;99757.41;12248354;19;20342;-87
2023/12/24 04:49:10;;;;;;;;;;;6.10;58.50;;;4.35;61.89;99705.88;12247085;19;20401;-87
2023/12/24 04:53:13;;;;;;;;;;;6.40;58.50;;;4.57;61.92;99754.81;12246460;19;19919;-87
2023/12/24 04:57:15;;;;;;;;;;;6.20;58.40;;;4.51;62.01;99744.75;12244425;19;19939;-87
2023/12/24 05:01:17;;;;;;;;;;;6.10;58.30;;;4.51;62.06;99752.50;12245882;19;20322;-87
2023/12/24 05:05:18;;;;;;;;;;;6.10;58.40;;;4.35;62.28;99724.78;12246184;19;19917;-87
2023/12/24 05:09:20;;;;;;;;;;;6.10;58.40;;;4.44;62.09;99726.13;12245829;19;19914;-87
2023/12/24 05:13:23;;;;;;;;;;;6.10;58.50;;;4.59;61.97;99752.97;12246084;19;19917;-86
2023/12/24 05:17:24;;;;;;;;;;;6.10;58.60;;;4.48;62.17;99737.97;12245152;19;20346;-87
2023/12/24 05:21:29;;;;;;;;;;;6.10;58.50;;;4.54;62.18;99753.22;12244294;19;19938;-86
2023/12/24 05:25:30;;;;;;;;;;;6.10;58.60;;;4.53;62.11;99748.09;12245673;19;19911;-86
2023/12/24 05:29:32;;;;;;;;;;;6.10;58.60;;;4.62;62.02;99760.63;12244285;19;19937;-86
2023/12/24 05:33:34;;;;;;;;;;;6.10;58.50;;;4.58;61.88;99748.75;12246220;19;19940;-86
2023/12/24 05:37:35;;;;;;;;;;;6.30;58.50;;;4.50;62.11;99719.81;12246408;19;19922;-86
2023/12/24 05:41:37;;;;;;;;;;;6.10;58.40;;;4.50;62.04;99733.56;12243916;19;19915;-86
2023/12/24 05:45:39;;;;;;;;;;;6.10;58.40;;;4.54;62.04;99729.13;12244323;19;19918;-86
2023/12/24 05:49:40;;;;;;;;;;;6.10;58.40;;;4.52;62.03;99720.59;12245808;19;19907;-86
2023/12/24 05:53:42;;;;;;;;;;;6.10;58.40;;;4.54;62.04;99714.44;12244250;19;19922;-86
2023/12/24 05:57:44;;;;;;;;;;;6.10;58.40;;;4.59;62.25;99728.00;12245474;19;19923;-86
2023/12/24 06:01:45;;;;;;;;;;;6.10;58.40;;;4.61;62.19;99720.16;12243055;19;19975;-86
2023/12/24 06:05:47;;;;;;;;;;;6.10;58.50;;;4.37;62.08;99679.00;12246478;19;19915;-86
2023/12/24 06:09:49;;;;;;;;;;;6.30;58.60;;;4.63;62.24;99713.16;12243643;19;19982;-86
2023/12/24 06:13:50;;;;;;;;;;;6.30;58.60;;;4.54;62.08;99695.50;12243228;19;19926;-86
2023/12/24 06:17:52;;;;;;;;;;;6.20;58.50;;;4.64;62.20;99707.06;12241112;19;19922;-86
2023/12/24 06:21:54;;;;;;;;;;;6.20;58.60;;;4.50;62.22;99687.03;12242654;19;19922;-85
2023/12/24 06:25:56;;;;;;;;;;;6.20;58.60;;;4.55;62.26;99695.41;12241521;19;19922;-86
2023/12/24 06:29:58;;;;;;;;;;;6.20;58.60;;;4.54;62.34;99690.34;12234999;19;19954;-86
2023/12/24 06:33:59;;;;;;;;;;;6.40;58.80;;;4.58;62.36;99684.94;12241707;19;19919;-86
2023/12/24 06:38:01;;;;;;;;;;;6.20;58.70;;;4.70;62.27;99703.34;12241698;19;19922;-86
2023/12/24 06:42:03;;;;;;;;;;;6.40;59.00;;;4.58;62.34;99673.75;12244691;19;19926;-87
2023/12/24 06:46:11;;;;;;;;;;;6.20;58.80;;;4.68;62.37;99687.94;12250763;19;20617;-85
2023/12/24 06:50:13;;;;;;;;;;;6.40;59.00;;;4.55;62.19;99650.66;12248980;19;19935;-86
2023/12/24 06:54:14;;;;;;;;;;;6.30;59.00;;;4.82;62.23;99685.50;12249772;19;20329;-88
2023/12/24 06:58:16;;;;;;;;;;;6.40;59.10;;;4.61;62.29;99640.84;12252542;19;19962;-86
2023/12/24 07:02:17;;;;;;;;;;;6.40;59.20;;;4.92;62.18;99669.56;12244682;19;19974;-85
2023/12/24 07:06:19;;;;;;;;;;;6.50;59.20;;;4.95;62.28;99664.25;12244980;19;20336;-85
2023/12/24 07:14:28;;;;;;;;;;;6.60;59.30;;;5.13;62.50;99663.34;12214079;19;19926;-84
2023/12/24 07:18:29;;;;;;;;;;;6.60;59.30;;;5.14;62.44;99659.00;12250023;19;19915;-84
2023/12/24 07:22:31;;;;;;;;;;;6.70;59.30;;;5.26;62.57;99661.78;12243481;19;19930;-84
2023/12/24 07:26:32;;;;;;;;;;;6.90;59.50;;;5.34;62.60;99663.97;12247530;19;19939;-83
2023/12/24 07:30:33;;;;;;;;;;;6.90;59.60;;;5.42;62.65;99651.47;12245597;19;20345;-84
2023/12/24 07:34:35;;;;;;;;;;;7.00;59.70;;;5.53;62.50;99637.97;12244787;19;19962;-84
2023/12/24 07:38:36;;;;;;;;;;;7.10;59.90;;;5.76;62.83;99657.50;12247426;19;19918;-83
2023/12/24 07:42:38;;;;;;;;;;;7.50;60.70;;;5.96;62.63;99654.72;12242887;19;19922;-84
2023/12/24 07:46:39;;;;;;;;;;;7.50;61.30;;;6.12;62.91;99648.72;12244350;19;19922;-83
2023/12/24 07:50:42;;;;;;;;;;;7.70;62.10;;;6.38;62.96;99642.13;12245787;19;19990;-84
2023/12/24 07:54:43;;;;;;;;;;;7.90;62.70;;;6.59;62.94;99646.13;12242999;19;19923;-86
2023/12/24 07:58:45;;;;;;;;;;;8.10;63.00;;;6.84;62.93;99655.09;12245520;19;19974;-84
2023/12/24 08:02:47;;;;;;;;;;;8.30;63.00;;;7.09;62.82;99662.31;12243659;19;19915;-84
2023/12/24 08:06:51;;;;;;;;;;;8.50;63.10;;;7.23;62.87;99643.31;12246053;19;19929;-84
2023/12/24 08:10:53;;;;;;;;;;;8.80;63.50;;;7.44;63.04;99649.84;12243362;19;20250;-83
2023/12/24 08:14:54;;;;;;;;;;;9.00;63.90;;;7.41;62.83;99610.25;12244650;19;19929;-83
2023/12/24 08:18:56;;;;;;;;;;;9.20;63.70;;;7.86;62.85;99653.38;12242691;19;19922;-83
2023/12/24 08:22:57;;;;;;;;;;;9.50;63.80;;;7.93;62.84;99628.66;12242136;19;20342;-83
2023/12/24 08:26:59;;;;;;;;;;;9.50;64.10;;;8.17;62.88;99641.91;12243479;19;19984;-87
2023/12/24 08:31:01;;;;;;;;;;;9.70;64.00;;;8.36;62.85;99646.78;12238304;19;20412;-86
2023/12/24 08:35:03;;;;;;;;;;;9.90;64.30;;;8.46;62.97;99646.25;12242112;19;19915;-84
2023/12/24 08:39:04;;;;;;;;;;;10.00;64.10;;;8.40;62.90;99613.66;12244008;19;19972;-83
2023/12/24 08:43:06;;;;;;;;;;;10.20;64.30;;;8.69;63.02;99635.16;12239928;19;19954;-84
2023/12/24 08:47:07;;;;;;;;;;;10.30;63.90;;;8.85;62.85;99641.03;12245299;19;19918;-85
2023/12/24 08:51:09;;;;;;;;;;;10.40;63.50;;;8.97;62.88;99646.41;12238798;19;19919;-83
2023/12/24 08:55:10;;;;;;;;;;;10.50;64.50;;;8.99;63.07;99623.69;12240226;19;19919;-84
2023/12/24 08:59:12;;;;;;;;;;;10.60;64.10;;;9.06;63.07;99615.38;12242116;19;19951;-84
2023/12/24 09:03:15;;;;;;;;;;;10.70;63.90;;;9.22;63.07;99630.81;12237581;19;20350;-85
2023/12/24 09:07:16;;;;;;;;;;;10.80;63.70;;;9.37;63.01;99644.59;12239927;19;20270;-85
2023/12/24 09:11:18;;;;;;;;;;;10.90;63.90;;;9.38;63.02;99622.78;12242142;19;19996;-86
2023/12/24 09:15:19;;;;;;;;;;;11.00;64.00;;;9.44;62.88;99616.31;12239009;19;19930;-85
2023/12/24 09:19:20;;;;;;;;;;;11.10;64.20;;;9.61;63.14;99628.19;12240320;19;20456;-86
2023/12/24 09:23:22;;;;;;;;;;;11.10;63.80;;;9.64;63.12;99623.63;12238594;19;19915;-84
2023/12/24 09:27:23;;;;;;;;;;;11.20;64.00;;;9.78;63.05;99651.34;12240720;19;19926;-85
2023/12/24 09:31:24;;;;;;;;;;;11.30;64.00;;;9.86;63.09;99637.78;12228624;19;19991;-85
2023/12/24 09:35:27;;;;;;;;;;;11.40;64.00;;;9.91;62.81;99633.91;12232303;19;20374;-85
2023/12/24 09:39:29;;;;;;;;;;;11.40;64.10;;;9.95;63.00;99629.28;12236830;19;19990;-85
2023/12/24 09:43:31;;;;;;;;;;;11.50;63.70;;;10.00;63.04;99624.59;12235300;19;20245;-85
2023/12/24 09:47:32;;;;;;;;;;;11.50;63.90;;;10.04;63.03;99617.38;12238535;19;20274;-85
2023/12/24 09:51:38;;;;;;;;;;;11.60;64.00;;;10.07;63.15;99614.53;12237301;19;19919;-84
2023/12/24 09:55:39;;;;;;;;;;;11.60;63.60;;;10.13;63.09;99616.75;12234563;19;19951;-85
2023/12/24 09:59:41;;;;;;;;;;;11.60;63.70;;;10.18;63.09;99598.97;12238548;19;20336;-85
2023/12/24 10:03:42;;;;;;;;;;;11.60;63.70;;;10.24;63.17;99613.38;12223216;19;20372;-85
2023/12/24 10:07:45;;;;;;;;;;;11.70;64.00;;;10.26;63.14;99606.22;12239105;19;20350;-85
2023/12/24 10:12:06;;;;;;;;;;;11.70;65.40;;;10.23;63.10;99596.84;12236733;19;19925;-84
2023/12/24 10:16:09;;;;;;;;;;;11.70;64.70;;;10.28;63.21;99593.94;12244492;19;20265;-85
2023/12/24 10:20:10;;;;;;;;;;;11.80;64.70;;;10.32;63.19;99585.81;12251840;19;19937;-87
2023/12/24 10:24:12;;;;;;;;;;;11.80;64.50;;;10.46;62.95;99590.00;12245348;19;20307;-86
2023/12/24 10:28:14;;;;;;;;;;;11.90;65.40;;;10.46;63.21;99587.41;12251760;19;19925;-87
2023/12/24 10:32:22;;;;;;;;;;;11.90;65.00;;;10.40;62.99;99567.81;12246870;19;19932;-85
2023/12/24 10:36:23;;;;;;;;;;;11.90;64.70;;;10.55;63.22;99598.94;12246404;19;20311;-85
2023/12/24 10:40:25;;;;;;;;;;;12.00;64.60;;;10.58;63.17;99583.88;12248779;19;19918;-85
2023/12/24 10:44:26;;;;;;;;;;;12.10;65.00;;;10.49;63.25;99568.91;12250452;19;19915;-85
2023/12/24 10:48:28;;;;;;;;;;;12.10;65.00;;;10.71;63.32;99585.59;12248169;19;19914;-86
2023/12/24 10:52:29;;;;;;;;;;;12.10;64.90;;;10.76;63.24;99588.69;12246829;19;19930;-84
2023/12/24 10:56:35;;;;;;;;;;;12.20;65.60;;;10.84;63.18;99578.50;12247395;19;19930;-83
2023/12/24 11:00:37;;;;;;;;;;;12.20;65.60;;;10.86;63.30;99571.41;12244809;19;20422;-83
2023/12/24 11:04:44;;;;;;;;;;;12.30;66.00;;;10.92;63.15;99557.06;12246755;19;19956;-86
2023/12/24 11:08:45;;;;;;;;;;;12.30;66.00;;;10.96;63.34;99558.47;12248877;19;19929;-86
2023/12/24 11:12:47;;;;;;;;;;;12.30;65.40;;;10.98;63.37;99552.19;12243110;19;19926;-84
2023/12/24 11:16:48;;;;;;;;;;;12.40;65.30;;;10.96;63.34;99533.16;12243852;19;19919;-84
2023/12/24 11:20:57;;;;;;;;;;;12.50;65.40;;;11.01;63.35;99540.66;12245477;19;19931;-85
2023/12/24 11:25:16;;;;;;;;;;;12.50;65.20;;;11.16;63.18;99549.13;12243483;19;19924;-84
2023/12/24 11:29:42;;;;;;;;;;;12.50;65.30;;;11.19;63.34;99541.88;12248300;19;19919;-85
2023/12/24 11:33:45;;;;;;;;;;;12.60;65.60;;;11.23;63.30;99539.84;12241147;19;20358;-84
2023/12/24 11:37:47;;;;;;;;;;;12.60;65.80;;;11.14;63.20;99530.94;12246651;19;19915;-84
2023/12/24 11:41:50;;;;;;;;;;;12.60;65.70;;;11.23;63.19;99529.41;12242701;19;19926;-84
2023/12/24 11:45:52;;;;;;;;;;;12.70;65.50;;;11.31;63.35;99521.78;12247028;19;19915;-85
2023/12/24 11:49:54;;;;;;;;;;;12.80;65.80;;;11.39;63.18;99527.25;12244644;19;20327;-84
2023/12/24 11:54:06;;;;;;;;;;;12.70;65.70;;;11.41;63.20;99512.28;12243059;19;19940;-86
2023/12/24 11:58:08;;;;;;;;;;;12.80;65.70;;;11.45;63.26;99508.50;12244303;19;19931;-84
2023/12/24 12:02:09;;;;;;;;;;;12.80;65.20;;;11.44;63.46;99504.22;12240759;19;19975;-84
2023/12/24 12:06:11;;;;;;;;;;;12.80;65.50;;;11.49;63.31;99509.91;12242221;19;19926;-84
2023/12/24 12:10:12;;;;;;;;;;;12.80;65.40;;;11.47;63.38;99501.34;12232757;19;19919;-84
2023/12/24 12:14:15;;;;;;;;;;;12.90;65.30;;;11.43;63.43;99489.50;12233435;19;20039;-85
2023/12/24 12:18:17;;;;;;;;;;;12.90;65.60;;;11.34;63.33;99484.13;12232140;19;19927;-84
2023/12/24 12:22:18;;;;;;;;;;;12.90;66.10;;;11.44;63.31;99487.69;12222180;19;20488;-84
2023/12/24 12:26:19;;;;;;;;;;;12.90;65.60;;;11.62;63.29;99516.81;12233987;19;19973;-85
2023/12/24 12:30:22;;;;;;;;;;;12.90;65.50;;;11.60;63.37;99501.22;12233887;19;19926;-85
2023/12/24 12:34:23;;;;;;;;;;;13.00;65.60;;;11.62;63.39;99495.88;12231358;19;20487;-85
2023/12/24 12:38:25;;;;;;;;;;;13.00;65.40;;;11.68;63.37;99487.53;12222002;19;20172;-85
2023/12/24 12:42:26;;;;;;;;;;;13.00;66.20;;;11.65;63.50;99482.56;12224257;19;19950;-85
2023/12/24 12:46:29;;;;;;;;;;;13.00;66.20;;;11.54;63.54;99459.06;12229933;19;19919;-85
2023/12/24 12:50:30;;;;;;;;;;;13.00;65.80;;;11.70;63.49;99480.41;12220827;19;19926;-85
2023/12/24 12:54:33;;;;;;;;;;;13.00;65.60;;;11.74;63.51;99481.81;12221753;19;19918;-84
2023/12/24 12:58:35;;;;;;;;;;;13.00;65.60;;;11.69;63.56;99483.97;12230929;19;20291;-84
2023/12/24 13:02:37;;;;;;;;;;;13.20;66.10;;;11.70;63.47;99485.66;12229919;19;20511;-84
2023/12/24 13:06:51;;;;;;;;;;;13.10;65.60;;;11.80;63.48;99483.09;12228463;19;20285;-84
2023/12/24 13:10:53;;;;;;;;;;;13.10;65.90;;;11.82;63.41;99484.66;12233655;19;19999;-86
2023/12/24 13:14:58;;;;;;;;;;;13.10;66.10;;;11.82;63.55;99483.81;12234938;19;19939;-85
2023/12/24 13:19:17;;;;;;;;;;;13.20;65.80;;;11.82;63.46;99482.03;12242687;19;19941;-85
2023/12/24 13:23:23;;;;;;;;;;;13.20;66.00;;;11.89;63.51;99491.09;12237888;19;19918;-85
2023/12/24 13:27:24;;;;;;;;;;;13.20;65.90;;;11.92;63.62;99484.78;12238081;19;20345;-85
2023/12/24 13:31:26;;;;;;;;;;;13.20;65.60;;;11.91;63.46;99470.88;12238467;19;19960;-85
2023/12/24 13:35:28;;;;;;;;;;;13.20;66.30;;;11.91;63.58;99464.81;12238681;19;19927;-84
2023/12/24 13:39:30;;;;;;;;;;;13.30;66.50;;;11.92;63.63;99458.63;12242272;19;19998;-84
2023/12/24 13:43:31;;;;;;;;;;;13.30;66.20;;;11.78;63.49;99430.13;12239773;19;19928;-84
2023/12/24 13:47:33;;;;;;;;;;;13.30;66.20;;;11.99;63.56;99457.19;12239868;19;19922;-84
2023/12/24 13:51:36;;;;;;;;;;;13.30;66.10;;;11.99;63.51;99441.47;12249473;19;20366;-84
2023/12/24 13:55:38;;;;;;;;;;;13.40;66.50;;;11.93;63.66;99429.69;12250640;19;19933;-85
2023/12/24 13:59:43;;;;;;;;;;;13.30;65.90;;;12.05;63.54;99448.00;12255749;19;19907;-85
2023/12/24 14:03:45;;;;;;;;;;;13.40;66.10;;;11.99;63.48;99430.16;12253993;19;19907;-85
2023/12/24 14:07:46;;;;;;;;;;;13.30;65.80;;;11.86;63.57;99393.72;12251986;19;20369;-85
2023/12/24 14:11:48;;;;;;;;;;;13.40;66.30;;;12.02;63.67;99424.69;12252783;19;20286;-85
2023/12/24 14:15:49;;;;;;;;;;;13.40;66.20;;;12.05;63.63;99424.44;12249976;19;19974;-84
2023/12/24 14:19:53;;;;;;;;;;;13.40;66.40;;;12.07;63.59;99406.81;12251586;19;19926;-85
2023/12/24 14:23:55;;;;;;;;;;;13.40;66.10;;;12.15;63.62;99417.47;12250776;19;19923;-85
2023/12/24 14:27:56;;;;;;;;;;;13.40;66.00;;;12.18;63.72;99422.47;12252089;19;19915;-85
2023/12/24 14:31:58;;;;;;;;;;;13.50;66.00;;;12.21;63.61;99421.41;12248684;19;20014;-85
2023/12/24 14:36:00;;;;;;;;;;;13.50;66.50;;;12.16;63.60;99399.03;12250265;19;19944;-84
2023/12/24 14:40:04;;;;;;;;;;;13.60;65.90;;;12.04;63.63;99378.28;12243389;19;20326;-84
2023/12/24 14:44:05;;;;;;;;;;;13.50;65.80;;;12.17;63.85;99398.06;12247224;19;19935;-85
2023/12/24 14:48:06;;;;;;;;;;;13.50;66.40;;;12.22;63.55;99402.09;12250195;19;19922;-84
2023/12/24 14:52:09;;;;;;;;;;;13.50;66.20;;;12.21;63.52;99393.44;12236701;19;20346;-86
2023/12/24 14:56:11;;;;;;;;;;;13.60;66.20;;;12.22;63.62;99397.69;12245794;19;19934;-85
2023/12/24 15:00:13;;;;;;;;;;;13.50;66.70;;;12.15;63.55;99366.00;12245715;19;19923;-85
2023/12/24 15:04:14;;;;;;;;;;;13.50;66.70;;;12.23;63.55;99373.16;12248077;19;20333;-85
2023/12/24 15:08:16;;;;;;;;;;;13.50;66.30;;;12.24;63.71;99364.38;12250304;19;19986;-85
2023/12/24 15:12:17;;;;;;;;;;;13.50;66.40;;;12.12;63.65;99334.00;12250608;19;19943;-84
2023/12/24 15:16:19;;;;;;;;;;;13.50;66.80;;;12.18;63.70;99354.44;12244926;19;19939;-85
2023/12/24 15:20:21;;;;;;;;;;;13.70;67.10;;;12.19;63.72;99345.63;12246563;19;19920;-84
2023/12/24 15:24:23;;;;;;;;;;;13.50;66.70;;;12.19;63.78;99345.63;12249490;19;19933;-84
2023/12/24 15:28:24;;;;;;;;;;;13.50;66.60;;;12.21;63.63;99354.16;12248751;19;19966;-84
2023/12/24 15:32:27;;;;;;;;;;;13.60;66.30;;;12.20;63.60;99338.59;12248942;19;19951;-84
2023/12/24 15:36:29;;;;;;;;;;;13.60;66.70;;;12.25;63.71;99345.09;12248582;19;20389;-84
2023/12/24 15:40:31;;;;;;;;;;;13.60;66.20;;;12.25;63.73;99324.16;12245261;19;19915;-84
2023/12/24 15:44:32;;;;;;;;;;;13.60;66.70;;;12.33;63.87;99326.94;12248883;19;19923;-84
2023/12/24 15:48:35;;;;;;;;;;;13.60;66.60;;;12.34;63.71;99346.94;12244725;19;19963;-84
2023/12/24 15:52:37;;;;;;;;;;;13.80;67.30;;;12.34;63.80;99333.84;12245924;19;19925;-84
2023/12/24 15:56:39;;;;;;;;;;;13.60;66.70;;;12.28;63.73;99339.59;12247689;19;20305;-84
2023/12/24 16:00:41;;;;;;;;;;;13.60;67.20;;;12.12;63.79;99292.13;12243581;19;19927;-85
2023/12/24 16:04:43;;;;;;;;;;;13.60;67.00;;;12.35;63.84;99324.22;12245735;19;19919;-84
2023/12/24 16:08:44;;;;;;;;;;;13.70;67.10;;;12.37;63.75;99333.59;12246808;19;20311;-84
2023/12/24 16:12:46;;;;;;;;;;;13.60;66.70;;;12.42;63.89;99329.72;12243332;19;20337;-84
2023/12/24 16:16:48;;;;;;;;;;;13.60;67.50;;;12.35;63.86;99335.50;12243860;19;19919;-84
2023/12/24 16:20:50;;;;;;;;;;;13.70;67.10;;;12.43;63.78;99320.94;12244801;19;19954;-84
2023/12/24 16:24:55;;;;;;;;;;;13.70;66.60;;;12.45;63.88;99324.22;12240056;19;20224;-84
2023/12/24 16:28:57;;;;;;;;;;;13.70;67.20;;;12.46;63.81;99315.44;12246322;19;20221;-86
2023/12/24 16:32:59;;;;;;;;;;;13.80;66.90;;;12.27;63.71;99285.59;12244000;19;19922;-85
2023/12/24 16:37:01;;;;;;;;;;;13.70;66.90;;;12.47;63.72;99304.00;12245302;19;19986;-86
2023/12/24 16:41:03;;;;;;;;;;;13.70;66.90;;;12.48;63.76;99284.72;12240541;19;19919;-87
2023/12/24 16:45:05;;;;;;;;;;;13.70;66.90;;;12.35;63.76;99269.25;12244748;19;19930;-84
2023/12/24 16:49:06;;;;;;;;;;;13.70;67.70;;;12.42;63.79;99272.13;12242675;19;19957;-87
2023/12/24 16:53:08;;;;;;;;;;;13.70;67.20;;;12.46;63.89;99273.53;12245342;19;19921;-83
2023/12/24 16:57:09;;;;;;;;;;;13.70;67.10;;;12.41;63.89;99276.56;12242559;19;19983;-84
2023/12/24 17:01:11;;;;;;;;;;;13.80;67.10;;;12.46;63.96;99284.03;12242207;19;19982;-84
2023/12/24 17:05:12;;;;;;;;;;;13.70;66.80;;;12.50;63.96;99274.91;12239945;19;19971;-84
2023/12/24 17:09:14;;;;;;;;;;;13.80;67.00;;;12.43;63.85;99273.81;12245958;19;19922;-85
2023/12/24 17:13:16;;;;;;;;;;;13.70;66.90;;;12.51;63.87;99281.84;12245330;19;19955;-84
2023/12/24 17:17:17;;;;;;;;;;;13.80;67.00;;;12.22;63.88;99229.38;12244306;19;19935;-84
2023/12/24 17:21:19;;;;;;;;;;;13.80;67.00;;;12.51;63.85;99273.97;12241055;19;19923;-84
2023/12/24 17:25:20;;;;;;;;;;;13.80;66.80;;;12.54;64.00;99276.31;12240332;19;20348;-84
2023/12/24 17:29:22;;;;;;;;;;;13.80;66.90;;;12.55;63.91;99267.50;12240568;19;19937;-84
2023/12/24 17:33:23;;;;;;;;;;;13.80;66.80;;;12.52;63.91;99250.25;12246106;19;19919;-84
2023/12/24 17:37:25;;;;;;;;;;;13.80;68.30;;;12.54;64.02;99250.97;12239478;19;19975;-84
2023/12/24 17:41:26;;;;;;;;;;;13.80;67.60;;;12.50;63.88;99225.19;12237068;19;19923;-84
2023/12/24 17:45:28;;;;;;;;;;;13.80;68.00;;;12.60;63.93;99244.38;12245782;19;19943;-85
2023/12/24 17:49:30;;;;;;;;;;;13.80;67.40;;;12.52;64.03;99223.25;12247688;19;19944;-84
2023/12/24 17:53:32;;;;;;;;;;;13.80;67.60;;;12.56;63.92;99233.34;12243527;19;19940;-85
2023/12/24 17:57:34;;;;;;;;;;;13.90;67.50;;;12.56;63.98;99217.63;12239986;19;19940;-84
2023/12/24 18:01:37;;;;;;;;;;;13.90;67.70;;;12.61;63.97;99212.00;12241562;19;20293;-84
2023/12/24 18:05:38;;;;;;;;;;;13.90;67.80;;;12.64;64.07;99211.72;12239381;19;19929;-84
2023/12/24 18:09:39;;;;;;;;;;;13.90;68.10;;;12.61;64.02;99214.63;12241548;19;19915;-84
2023/12/24 18:13:41;;;;;;;;;;;13.90;67.90;;;12.62;63.98;99209.22;12241671;19;20275;-84
2023/12/24 18:17:43;;;;;;;;;;;13.90;68.10;;;12.61;64.01;99209.38;12239893;19;19927;-84
2023/12/24 18:21:44;;;;;;;;;;;13.90;68.00;;;12.68;64.25;99210.47;12237981;19;19923;-83
2023/12/24 18:25:45;;;;;;;;;;;13.90;67.70;;;12.69;64.04;99217.38;12242174;19;20381;-84
2023/12/24 18:29:46;;;;;;;;;;;13.90;67.70;;;12.63;64.14;99199.56;12238275;19;19918;-84
2023/12/24 18:33:48;;;;;;;;;;;13.90;68.50;;;12.72;64.06;99196.16;12238179;19;20371;-84
2023/12/24 18:37:49;;;;;;;;;;;13.90;68.20;;;12.73;63.97;99195.19;12242269;19;19927;-84